PWSweather.com
Personal Weather Stations
Station Observations
KIDJEROME
Sse Jerome Butte , Jerome, ID 83338

Sse Jerome Butte Jerome, ID 83338

Lat: 42.6981891, Lon: -114.4041362

Elevation: 3960

Station Type: Davis Vantage Pro 2

High Low Average
Temperature 34.3°F1.3°F 22.3°F-5.4°F 26.5°F-3.1°F
Dew Point 29.7°F-1.3°F 16.9°F-8.4°F 22.7°F-5.2°F
Winds 13.0 mph -20.9 mph - 2.0 mph 3.2 mph 8.3 mph 13.4 mph
Wind Gusts 19.0 mph30.6 mph 5.0 mph8.0 mph 13.5 mph21.7 mph
Humidity 94% 75% 86%
Pressure 30.40 in1029.50 in 30.19 in1022.40 in -
Precipitation 0.00 in0.00 in - -
Hour Temp Dew Point Humidity Winds Wind Gusts Pressure Precip Precip Rate Daily Precip Total
12:00 AM 23.7°F-4.6°C 17.8°F-7.9°C 78% 8.0 mph NE12.9 kmh NE 14.0 mph22.5 kmh 30.40 in1029.5 mb 0.00 in0.0 mm 0.00 in0.0 mm 0.00 in0.0 mm
12:15 AM 22.8°F-5.1°C 17.3°F-8.2°C 79% 10.0 mph NE16.1 kmh NE 14.0 mph22.5 kmh 30.40 in1029.5 mb 0.00 in0.0 mm 0.00 in0.0 mm 0.00 in0.0 mm
12:30 AM 22.6°F-5.2°C 17.1°F-8.3°C 79% 9.0 mph NE14.5 kmh NE 14.0 mph22.5 kmh 30.39 in1029.1 mb 0.00 in0.0 mm 0.00 in0.0 mm 0.00 in0.0 mm
12:45 AM 22.7°F-5.2°C 17.2°F-8.2°C 79% 10.0 mph NE16.1 kmh NE 16.0 mph25.7 kmh 30.39 in1029.1 mb 0.00 in0.0 mm 0.00 in0.0 mm 0.00 in0.0 mm
01:00 AM 22.4°F-5.3°C 17.2°F-8.2°C 80% 5.0 mph ENE8.0 kmh ENE 8.0 mph12.9 kmh 30.40 in1029.5 mb 0.00 in0.0 mm 0.00 in0.0 mm 0.00 in0.0 mm
01:15 AM 23.1°F-4.9°C 18.1°F-7.7°C 81% 5.0 mph ENE8.0 kmh ENE 12.0 mph19.3 kmh 30.39 in1029.1 mb 0.00 in0.0 mm 0.00 in0.0 mm 0.00 in0.0 mm
01:30 AM 23.5°F-4.7°C 18.2°F-7.7°C 80% 6.0 mph ENE9.7 kmh ENE 8.0 mph12.9 kmh 30.39 in1029.1 mb 0.00 in0.0 mm 0.00 in0.0 mm 0.00 in0.0 mm
01:45 AM 23.9°F-4.5°C 18.6°F-7.4°C 80% 5.0 mph E8.0 kmh E 11.0 mph17.7 kmh 30.37 in1028.4 mb 0.00 in0.0 mm 0.00 in0.0 mm 0.00 in0.0 mm
02:00 AM 24.1°F-4.4°C 18.2°F-7.7°C 78% 7.0 mph ENE11.3 kmh ENE 13.0 mph20.9 kmh 30.38 in1028.8 mb 0.00 in0.0 mm 0.00 in0.0 mm 0.00 in0.0 mm
02:15 AM 24.0°F-4.4°C 17.5°F-8.1°C 76% 8.0 mph ENE12.9 kmh ENE 14.0 mph22.5 kmh 30.38 in1028.8 mb 0.00 in0.0 mm 0.00 in0.0 mm 0.00 in0.0 mm
02:30 AM 23.6°F-4.7°C 17.1°F-8.3°C 76% 7.0 mph ENE11.3 kmh ENE 12.0 mph19.3 kmh 30.38 in1028.8 mb 0.00 in0.0 mm 0.00 in0.0 mm 0.00 in0.0 mm
02:45 AM 23.6°F-4.7°C 17.7°F-7.9°C 78% 7.0 mph E11.3 kmh E 10.0 mph16.1 kmh 30.38 in1028.8 mb 0.00 in0.0 mm 0.00 in0.0 mm 0.00 in0.0 mm
03:00 AM 23.7°F-4.6°C 18.1°F-7.7°C 79% 6.0 mph ENE9.7 kmh ENE 8.0 mph12.9 kmh 30.36 in1028.1 mb 0.00 in0.0 mm 0.00 in0.0 mm 0.00 in0.0 mm
03:15 AM 23.3°F-4.8°C 17.5°F-8.1°C 78% 5.0 mph NE8.0 kmh NE 10.0 mph16.1 kmh 30.37 in1028.4 mb 0.00 in0.0 mm 0.00 in0.0 mm 0.00 in0.0 mm
03:30 AM 23.1°F-4.9°C 17.0°F-8.3°C 77% 6.0 mph NE9.7 kmh NE 11.0 mph17.7 kmh 30.36 in1028.1 mb 0.00 in0.0 mm 0.00 in0.0 mm 0.00 in0.0 mm
03:45 AM 23.4°F-4.8°C 16.9°F-8.4°C 76% 8.0 mph ENE12.9 kmh ENE 13.0 mph20.9 kmh 30.35 in1027.8 mb 0.00 in0.0 mm 0.00 in0.0 mm 0.00 in0.0 mm
04:00 AM 23.7°F-4.6°C 17.2°F-8.2°C 76% 8.0 mph ENE12.9 kmh ENE 13.0 mph20.9 kmh 30.33 in1027.1 mb 0.00 in0.0 mm 0.00 in0.0 mm 0.00 in0.0 mm
04:15 AM 23.8°F-4.6°C 17.0°F-8.3°C 75% 8.0 mph E12.9 kmh E 12.0 mph19.3 kmh 30.34 in1027.4 mb 0.00 in0.0 mm 0.00 in0.0 mm 0.00 in0.0 mm
04:30 AM 23.4°F-4.8°C 16.9°F-8.4°C 76% 8.0 mph E12.9 kmh E 14.0 mph22.5 kmh 30.34 in1027.4 mb 0.00 in0.0 mm 0.00 in0.0 mm 0.00 in0.0 mm
04:45 AM 23.6°F-4.7°C 17.1°F-8.3°C 76% 4.0 mph E6.4 kmh E 9.0 mph14.5 kmh 30.34 in1027.4 mb 0.00 in0.0 mm 0.00 in0.0 mm 0.00 in0.0 mm
05:15 AM 23.7°F-4.6°C 17.2°F-8.2°C 76% 5.0 mph SE8.0 kmh SE 10.0 mph16.1 kmh 30.35 in1027.8 mb 0.00 in0.0 mm 0.00 in0.0 mm 0.00 in0.0 mm
05:30 AM 23.6°F-4.7°C 17.4°F-8.1°C 77% 2.0 mph SE3.2 kmh SE 6.0 mph9.7 kmh 30.34 in1027.4 mb 0.00 in0.0 mm 0.00 in0.0 mm 0.00 in0.0 mm
05:45 AM 23.8°F-4.6°C 17.6°F-8.0°C 77% 3.0 mph ESE4.8 kmh ESE 8.0 mph12.9 kmh 30.33 in1027.1 mb 0.00 in0.0 mm 0.00 in0.0 mm 0.00 in0.0 mm
06:00 AM 23.4°F-4.8°C 19.3°F-7.1°C 84% 5.0 mph E8.0 kmh E 13.0 mph20.9 kmh 30.33 in1027.1 mb 0.00 in0.0 mm 0.00 in0.0 mm 0.00 in0.0 mm
06:15 AM 23.4°F-4.8°C 20.6°F-6.3°C 89% 7.0 mph ENE11.3 kmh ENE 11.0 mph17.7 kmh 30.32 in1026.8 mb 0.00 in0.0 mm 0.00 in0.0 mm 0.00 in0.0 mm
06:30 AM 23.1°F-4.9°C 20.6°F-6.3°C 90% 7.0 mph NE11.3 kmh NE 14.0 mph22.5 kmh 30.32 in1026.8 mb 0.00 in0.0 mm 0.00 in0.0 mm 0.00 in0.0 mm
06:45 AM 22.6°F-5.2°C 20.1°F-6.6°C 90% 8.0 mph ENE12.9 kmh ENE 13.0 mph20.9 kmh 30.31 in1026.4 mb 0.00 in0.0 mm 0.00 in0.0 mm 0.00 in0.0 mm
07:00 AM 22.3°F-5.4°C 20.3°F-6.5°C 92% 8.0 mph NE12.9 kmh NE 13.0 mph20.9 kmh 30.31 in1026.4 mb 0.00 in0.0 mm 0.00 in0.0 mm 0.00 in0.0 mm
07:15 AM 22.6°F-5.2°C 20.9°F-6.2°C 93% 9.0 mph NE14.5 kmh NE 16.0 mph25.7 kmh 30.30 in1026.1 mb 0.00 in0.0 mm 0.00 in0.0 mm 0.00 in0.0 mm
07:30 AM 22.7°F-5.2°C 21.0°F-6.1°C 93% 10.0 mph NE16.1 kmh NE 18.0 mph29.0 kmh 30.30 in1026.1 mb 0.00 in0.0 mm 0.00 in0.0 mm 0.00 in0.0 mm
07:45 AM 22.7°F-5.2°C 21.0°F-6.1°C 93% 13.0 mph NE20.9 kmh NE 19.0 mph30.6 kmh 30.30 in1026.1 mb 0.00 in0.0 mm 0.00 in0.0 mm 0.00 in0.0 mm
08:00 AM 22.9°F-5.1°C 21.2°F-6.0°C 93% 12.0 mph NE19.3 kmh NE 19.0 mph30.6 kmh 30.30 in1026.1 mb 0.00 in0.0 mm 0.00 in0.0 mm 0.00 in0.0 mm
08:15 AM 23.0°F-5.0°C 21.3°F-5.9°C 93% 7.0 mph ENE11.3 kmh ENE 9.0 mph14.5 kmh 30.31 in1026.4 mb 0.00 in0.0 mm 0.00 in0.0 mm 0.00 in0.0 mm
08:30 AM 23.2°F-4.9°C 21.5°F-5.8°C 93% 6.0 mph E9.7 kmh E 9.0 mph14.5 kmh 30.31 in1026.4 mb 0.00 in0.0 mm 0.00 in0.0 mm 0.00 in0.0 mm
08:45 AM 23.7°F-4.6°C 22.0°F-5.6°C 93% 5.0 mph ENE8.0 kmh ENE 11.0 mph17.7 kmh 30.31 in1026.4 mb 0.00 in0.0 mm 0.00 in0.0 mm 0.00 in0.0 mm
09:00 AM 24.2°F-4.3°C 22.5°F-5.3°C 93% 6.0 mph ENE9.7 kmh ENE 8.0 mph12.9 kmh 30.31 in1026.4 mb 0.00 in0.0 mm 0.00 in0.0 mm 0.00 in0.0 mm
09:15 AM 24.6°F-4.1°C 22.9°F-5.1°C 93% 5.0 mph ENE8.0 kmh ENE 13.0 mph20.9 kmh 30.32 in1026.8 mb 0.00 in0.0 mm 0.00 in0.0 mm 0.00 in0.0 mm
09:30 AM 24.7°F-4.1°C 23.2°F-4.9°C 94% 5.0 mph ENE8.0 kmh ENE 8.0 mph12.9 kmh 30.31 in1026.4 mb 0.00 in0.0 mm 0.00 in0.0 mm 0.00 in0.0 mm
09:45 AM 25.0°F-3.9°C 23.5°F-4.7°C 94% 6.0 mph ENE9.7 kmh ENE 10.0 mph16.1 kmh 30.32 in1026.8 mb 0.00 in0.0 mm 0.00 in0.0 mm 0.00 in0.0 mm
10:00 AM 25.1°F-3.8°C 23.6°F-4.7°C 94% 6.0 mph ENE9.7 kmh ENE 11.0 mph17.7 kmh 30.32 in1026.8 mb 0.00 in0.0 mm 0.00 in0.0 mm 0.00 in0.0 mm
10:15 AM 25.2°F-3.8°C 23.7°F-4.6°C 94% 6.0 mph ENE9.7 kmh ENE 10.0 mph16.1 kmh 30.33 in1027.1 mb 0.00 in0.0 mm 0.00 in0.0 mm 0.00 in0.0 mm
10:30 AM 25.6°F-3.6°C 23.9°F-4.5°C 93% 6.0 mph ENE9.7 kmh ENE 11.0 mph17.7 kmh 30.33 in1027.1 mb 0.00 in0.0 mm 0.00 in0.0 mm 0.00 in0.0 mm
10:45 AM 25.9°F-3.4°C 24.2°F-4.3°C 93% 8.0 mph ENE12.9 kmh ENE 13.0 mph20.9 kmh 30.33 in1027.1 mb 0.00 in0.0 mm 0.00 in0.0 mm 0.00 in0.0 mm
11:00 AM 26.5°F-3.1°C 24.8°F-4.0°C 93% 8.0 mph NE12.9 kmh NE 15.0 mph24.1 kmh 30.33 in1027.1 mb 0.00 in0.0 mm 0.00 in0.0 mm 0.00 in0.0 mm
11:15 AM 28.0°F-2.2°C 25.7°F-3.5°C 91% 10.0 mph NE16.1 kmh NE 16.0 mph25.7 kmh 30.32 in1026.8 mb 0.00 in0.0 mm 0.00 in0.0 mm 0.00 in0.0 mm
11:30 AM 28.7°F-1.8°C 25.9°F-3.4°C 89% 9.0 mph NE14.5 kmh NE 17.0 mph27.4 kmh 30.31 in1026.4 mb 0.00 in0.0 mm 0.00 in0.0 mm 0.00 in0.0 mm
11:45 AM 29.4°F-1.4°C 26.6°F-3.0°C 89% 11.0 mph NE17.7 kmh NE 16.0 mph25.7 kmh 30.30 in1026.1 mb 0.00 in0.0 mm 0.00 in0.0 mm 0.00 in0.0 mm
12:00 PM 30.1°F-1.1°C 27.0°F-2.8°C 88% 10.0 mph NE16.1 kmh NE 16.0 mph25.7 kmh 30.30 in1026.1 mb 0.00 in0.0 mm 0.00 in0.0 mm 0.00 in0.0 mm
12:15 PM 31.1°F-0.5°C 27.7°F-2.4°C 87% 10.0 mph NE16.1 kmh NE 15.0 mph24.1 kmh 30.30 in1026.1 mb 0.00 in0.0 mm 0.00 in0.0 mm 0.00 in0.0 mm
12:30 PM 31.4°F-0.3°C 28.0°F-2.2°C 87% 9.0 mph NE14.5 kmh NE 15.0 mph24.1 kmh 30.29 in1025.7 mb 0.00 in0.0 mm 0.00 in0.0 mm 0.00 in0.0 mm
12:45 PM 31.1°F-0.5°C 27.4°F-2.6°C 86% 11.0 mph NE17.7 kmh NE 18.0 mph29.0 kmh 30.27 in1025.1 mb 0.00 in0.0 mm 0.00 in0.0 mm 0.00 in0.0 mm
01:00 PM 31.3°F-0.4°C 27.6°F-2.4°C 86% 10.0 mph ENE16.1 kmh ENE 15.0 mph24.1 kmh 30.27 in1025.1 mb 0.00 in0.0 mm 0.00 in0.0 mm 0.00 in0.0 mm
01:15 PM 31.6°F-0.2°C 27.9°F-2.3°C 86% 10.0 mph NE16.1 kmh NE 15.0 mph24.1 kmh 30.26 in1024.7 mb 0.00 in0.0 mm 0.00 in0.0 mm 0.00 in0.0 mm
01:30 PM 32.1°F0.1°C 28.4°F-2.0°C 86% 11.0 mph NE17.7 kmh NE 15.0 mph24.1 kmh 30.25 in1024.4 mb 0.00 in0.0 mm 0.00 in0.0 mm 0.00 in0.0 mm
01:45 PM 32.6°F0.3°C 28.6°F-1.9°C 85% 10.0 mph NE16.1 kmh NE 17.0 mph27.4 kmh 30.26 in1024.7 mb 0.00 in0.0 mm 0.00 in0.0 mm 0.00 in0.0 mm
02:00 PM 33.1°F0.6°C 28.8°F-1.8°C 84% 11.0 mph NE17.7 kmh NE 17.0 mph27.4 kmh 30.25 in1024.4 mb 0.00 in0.0 mm 0.00 in0.0 mm 0.00 in0.0 mm
02:15 PM 33.7°F0.9°C 29.4°F-1.4°C 84% 11.0 mph NE17.7 kmh NE 16.0 mph25.7 kmh 30.25 in1024.4 mb 0.00 in0.0 mm 0.00 in0.0 mm 0.00 in0.0 mm
02:30 PM 33.9°F1.1°C 29.6°F-1.3°C 84% 11.0 mph NE17.7 kmh NE 16.0 mph25.7 kmh 30.25 in1024.4 mb 0.00 in0.0 mm 0.00 in0.0 mm 0.00 in0.0 mm
02:45 PM 34.3°F1.3°C 29.7°F-1.3°C 83% 11.0 mph NE17.7 kmh NE 17.0 mph27.4 kmh 30.24 in1024.0 mb 0.00 in0.0 mm 0.00 in0.0 mm 0.00 in0.0 mm
03:00 PM 34.1°F1.2°C 29.5°F-1.4°C 83% 11.0 mph NE17.7 kmh NE 17.0 mph27.4 kmh 30.24 in1024.0 mb 0.00 in0.0 mm 0.00 in0.0 mm 0.00 in0.0 mm
03:15 PM 33.7°F0.9°C 28.8°F-1.8°C 82% 11.0 mph NE17.7 kmh NE 17.0 mph27.4 kmh 30.24 in1024.0 mb 0.00 in0.0 mm 0.00 in0.0 mm 0.00 in0.0 mm
03:30 PM 33.7°F0.9°C 29.1°F-1.6°C 83% 12.0 mph NE19.3 kmh NE 17.0 mph27.4 kmh 30.23 in1023.7 mb 0.00 in0.0 mm 0.00 in0.0 mm 0.00 in0.0 mm
03:45 PM 33.7°F0.9°C 28.8°F-1.8°C 82% 10.0 mph NE16.1 kmh NE 19.0 mph30.6 kmh 30.23 in1023.7 mb 0.00 in0.0 mm 0.00 in0.0 mm 0.00 in0.0 mm
04:00 PM 33.7°F0.9°C 28.8°F-1.8°C 82% 11.0 mph NE17.7 kmh NE 17.0 mph27.4 kmh 30.23 in1023.7 mb 0.00 in0.0 mm 0.00 in0.0 mm 0.00 in0.0 mm
04:15 PM 33.6°F0.9°C 28.7°F-1.8°C 82% 10.0 mph NE16.1 kmh NE 17.0 mph27.4 kmh 30.23 in1023.7 mb 0.00 in0.0 mm 0.00 in0.0 mm 0.00 in0.0 mm
04:30 PM 33.1°F0.6°C 28.5°F-1.9°C 83% 10.0 mph NE16.1 kmh NE 15.0 mph24.1 kmh 30.23 in1023.7 mb 0.00 in0.0 mm 0.00 in0.0 mm 0.00 in0.0 mm
04:45 PM 32.4°F0.2°C 27.8°F-2.3°C 83% 10.0 mph NE16.1 kmh NE 18.0 mph29.0 kmh 30.23 in1023.7 mb 0.00 in0.0 mm 0.00 in0.0 mm 0.00 in0.0 mm
05:00 PM 31.8°F-0.1°C 27.2°F-2.7°C 83% 10.0 mph NE16.1 kmh NE 15.0 mph24.1 kmh 30.22 in1023.4 mb 0.00 in0.0 mm 0.00 in0.0 mm 0.00 in0.0 mm
05:15 PM 30.9°F-0.6°C 26.9°F-2.8°C 85% 9.0 mph NE14.5 kmh NE 13.0 mph20.9 kmh 30.23 in1023.7 mb 0.00 in0.0 mm 0.00 in0.0 mm 0.00 in0.0 mm
05:30 PM 29.8°F-1.2°C 26.1°F-3.3°C 86% 9.0 mph NE14.5 kmh NE 13.0 mph20.9 kmh 30.23 in1023.7 mb 0.00 in0.0 mm 0.00 in0.0 mm 0.00 in0.0 mm
05:45 PM 29.3°F-1.5°C 25.6°F-3.6°C 86% 8.0 mph NE12.9 kmh NE 14.0 mph22.5 kmh 30.22 in1023.4 mb 0.00 in0.0 mm 0.00 in0.0 mm 0.00 in0.0 mm
06:00 PM 28.8°F-1.8°C 25.4°F-3.7°C 87% 8.0 mph NE12.9 kmh NE 14.0 mph22.5 kmh 30.22 in1023.4 mb 0.00 in0.0 mm 0.00 in0.0 mm 0.00 in0.0 mm
06:15 PM 28.5°F-1.9°C 25.1°F-3.8°C 87% 9.0 mph NE14.5 kmh NE 15.0 mph24.1 kmh 30.22 in1023.4 mb 0.00 in0.0 mm 0.00 in0.0 mm 0.00 in0.0 mm
06:30 PM 28.1°F-2.2°C 24.7°F-4.1°C 87% 9.0 mph NE14.5 kmh NE 13.0 mph20.9 kmh 30.22 in1023.4 mb 0.00 in0.0 mm 0.00 in0.0 mm 0.00 in0.0 mm
06:45 PM 27.8°F-2.3°C 24.4°F-4.2°C 87% 10.0 mph NE16.1 kmh NE 16.0 mph25.7 kmh 30.22 in1023.4 mb 0.00 in0.0 mm 0.00 in0.0 mm 0.00 in0.0 mm
07:00 PM 27.5°F-2.5°C 24.1°F-4.4°C 87% 10.0 mph NE16.1 kmh NE 17.0 mph27.4 kmh 30.22 in1023.4 mb 0.00 in0.0 mm 0.00 in0.0 mm 0.00 in0.0 mm
07:15 PM 27.0°F-2.8°C 23.6°F-4.7°C 87% 11.0 mph NE17.7 kmh NE 17.0 mph27.4 kmh 30.21 in1023.0 mb 0.00 in0.0 mm 0.00 in0.0 mm 0.00 in0.0 mm
07:30 PM 26.3°F-3.2°C 23.0°F-5.0°C 87% 11.0 mph NE17.7 kmh NE 16.0 mph25.7 kmh 30.22 in1023.4 mb 0.00 in0.0 mm 0.00 in0.0 mm 0.00 in0.0 mm
07:45 PM 25.9°F-3.4°C 22.6°F-5.2°C 87% 12.0 mph NE19.3 kmh NE 17.0 mph27.4 kmh 30.22 in1023.4 mb 0.00 in0.0 mm 0.00 in0.0 mm 0.00 in0.0 mm
08:00 PM 25.4°F-3.7°C 22.3°F-5.4°C 88% 11.0 mph NE17.7 kmh NE 16.0 mph25.7 kmh 30.21 in1023.0 mb 0.00 in0.0 mm 0.00 in0.0 mm 0.00 in0.0 mm
08:15 PM 24.8°F-4.0°C 21.8°F-5.7°C 88% 10.0 mph NE16.1 kmh NE 14.0 mph22.5 kmh 30.21 in1023.0 mb 0.00 in0.0 mm 0.00 in0.0 mm 0.00 in0.0 mm
08:30 PM 24.6°F-4.1°C 21.6°F-5.8°C 88% 9.0 mph NE14.5 kmh NE 15.0 mph24.1 kmh 30.21 in1023.0 mb 0.00 in0.0 mm 0.00 in0.0 mm 0.00 in0.0 mm
08:45 PM 24.5°F-4.2°C 21.5°F-5.8°C 88% 10.0 mph NE16.1 kmh NE 16.0 mph25.7 kmh 30.20 in1022.7 mb 0.00 in0.0 mm 0.00 in0.0 mm 0.00 in0.0 mm
09:00 PM 24.1°F-4.4°C 21.1°F-6.1°C 88% 10.0 mph NE16.1 kmh NE 15.0 mph24.1 kmh 30.20 in1022.7 mb 0.00 in0.0 mm 0.00 in0.0 mm 0.00 in0.0 mm
09:15 PM 23.9°F-4.5°C 21.1°F-6.1°C 89% 10.0 mph NE16.1 kmh NE 16.0 mph25.7 kmh 30.21 in1023.0 mb 0.00 in0.0 mm 0.00 in0.0 mm 0.00 in0.0 mm
09:30 PM 24.0°F-4.4°C 21.0°F-6.1°C 88% 9.0 mph NE14.5 kmh NE 15.0 mph24.1 kmh 30.22 in1023.4 mb 0.00 in0.0 mm 0.00 in0.0 mm 0.00 in0.0 mm
09:45 PM 23.8°F-4.6°C 21.0°F-6.1°C 89% 8.0 mph NE12.9 kmh NE 12.0 mph19.3 kmh 30.20 in1022.7 mb 0.00 in0.0 mm 0.00 in0.0 mm 0.00 in0.0 mm
10:00 PM 23.9°F-4.5°C 21.4°F-5.9°C 90% 8.0 mph NE12.9 kmh NE 14.0 mph22.5 kmh 30.20 in1022.7 mb 0.00 in0.0 mm 0.00 in0.0 mm 0.00 in0.0 mm
10:15 PM 24.6°F-4.1°C 21.8°F-5.7°C 89% 9.0 mph NE14.5 kmh NE 15.0 mph24.1 kmh 30.19 in1022.4 mb 0.00 in0.0 mm 0.00 in0.0 mm 0.00 in0.0 mm
10:30 PM 24.8°F-4.0°C 22.0°F-5.6°C 89% 10.0 mph NE16.1 kmh NE 14.0 mph22.5 kmh 30.19 in1022.4 mb 0.00 in0.0 mm 0.00 in0.0 mm 0.00 in0.0 mm
10:45 PM 24.7°F-4.1°C 21.9°F-5.6°C 89% 9.0 mph NE14.5 kmh NE 12.0 mph19.3 kmh 30.20 in1022.7 mb 0.00 in0.0 mm 0.00 in0.0 mm 0.00 in0.0 mm
11:00 PM 24.5°F-4.2°C 21.7°F-5.7°C 89% 7.0 mph NE11.3 kmh NE 11.0 mph17.7 kmh 30.20 in1022.7 mb 0.00 in0.0 mm 0.00 in0.0 mm 0.00 in0.0 mm
11:15 PM 24.3°F-4.3°C 21.8°F-5.7°C 90% 4.0 mph ENE6.4 kmh ENE 5.0 mph8.0 kmh 30.21 in1023.0 mb 0.00 in0.0 mm 0.00 in0.0 mm 0.00 in0.0 mm
11:30 PM 24.2°F-4.3°C 21.7°F-5.7°C 90% 2.0 mph E3.2 kmh E 5.0 mph8.0 kmh 30.21 in1023.0 mb 0.00 in0.0 mm 0.00 in0.0 mm 0.00 in0.0 mm
11:45 PM 24.0°F-4.4°C 21.5°F-5.8°C 90% 2.0 mph ENE3.2 kmh ENE 5.0 mph8.0 kmh 30.20 in1022.7 mb 0.00 in0.0 mm 0.00 in0.0 mm 0.00 in0.0 mm